aviador You're here:

KGLS Decoded Metar

GALVESTON in TX, USA
Report Time2018-01-17 17:52:00
UTC Time2018-01-17 18:13:51
Flight Rules vfr VFR
Wind010° at 12 kt
W.Decomp.*RWY 36: 11.9 kt HW 1.7 kt RCW
RWY 32: 8.0 kt HW 8.9 kt RCW
W.Rank010° ranks 14
Current wind is above 010° avg. (10.8)
Visibility9999 m
Phenomena:N/A
Clouds:N/A
Expected CloudBase > 2,800 ft AGL from Temp-Dew spread
CeilingNone
Temp-1°C (ISA -16)
Dew Point-8°C (59% RH)
AAT-8.2°C
QNH1041 hPa
Density Alt-2,838 ft
Elevation20 ft
Report Wrong Elevation
Raw Report
KGLS 171752Z 01012KT 10SM CLR M01/M08 A3073 RMK AO2 SLP404
T10061078 11006 21039 58007=

Extra information for KGLS:More info

Metar Taf Metar & Taf Last 4 Metars F.Rules Stats Wind Profile Meteogram Temp Stats Airport Information Weather charts Add Link Nearby VenuesMetar ALERT Operation Metar Decoded Social comments

AIRNAV info for KGLS